sensor_id;sensor_type;location;lat;lon;timestamp;pressure;altitude;pressure_sealevel;temperature;humidity
14800;BME280;7491;57.750;11.970;2024-01-07T00:50:36;80149.22;;;-142.11;100.00
14800;BME280;7491;57.750;11.970;2024-01-07T01:20:36;80204.31;;;-142.11;100.00
14800;BME280;7491;57.750;11.970;2024-01-07T05:46:08;80192.06;;;-142.11;100.00
14800;BME280;7491;57.750;11.970;2024-01-07T07:06:04;80122.69;;;-142.11;100.00
14800;BME280;7491;57.750;11.970;2024-01-07T07:08:47;80100.22;;;-142.11;100.00
14800;BME280;7491;57.750;11.970;2024-01-07T07:12:00;80079.81;;;-142.11;100.00
14800;BME280;7491;57.750;11.970;2024-01-07T07:14:50;80094.13;;;-142.11;100.00
14800;BME280;7491;57.750;11.970;2024-01-07T07:17:30;80098.19;;;-142.11;100.00
14800;BME280;7491;57.750;11.970;2024-01-07T07:20:26;80100.22;;;-142.11;100.00
14800;BME280;7491;57.750;11.970;2024-01-07T07:23:00;80081.88;;;-142.11;100.00
14800;BME280;7491;57.750;11.970;2024-01-07T07:25:30;80088.00;;;-142.11;100.00
14800;BME280;7491;57.750;11.970;2024-01-07T07:27:57;80067.56;;;-142.11;100.00
14800;BME280;7491;57.750;11.970;2024-01-07T07:30:44;80057.38;;;-142.11;100.00
14800;BME280;7491;57.750;11.970;2024-01-07T07:33:11;80061.47;;;-142.11;100.00
14800;BME280;7491;57.750;11.970;2024-01-07T07:35:39;80055.34;;;-142.11;100.00
14800;BME280;7491;57.750;11.970;2024-01-07T07:38:08;80051.25;;;-142.11;100.00
14800;BME280;7491;57.750;11.970;2024-01-07T07:40:35;80063.50;;;-142.11;100.00
14800;BME280;7491;57.750;11.970;2024-01-07T07:43:02;80073.69;;;-142.11;100.00
14800;BME280;7491;57.750;11.970;2024-01-07T07:45:29;80051.25;;;-142.11;100.00
14800;BME280;7491;57.750;11.970;2024-01-07T07:47:56;80039.00;;;-142.11;100.00
14800;BME280;7491;57.750;11.970;2024-01-07T07:50:22;80047.16;;;-142.11;100.00
14800;BME280;7491;57.750;11.970;2024-01-07T07:52:49;80053.28;;;-142.11;100.00
14800;BME280;7491;57.750;11.970;2024-01-07T07:55:17;80030.84;;;-142.11;100.00
14800;BME280;7491;57.750;11.970;2024-01-07T07:57:44;80055.34;;;-142.11;100.00
14800;BME280;7491;57.750;11.970;2024-01-07T08:00:12;80041.03;;;-142.11;100.00
14800;BME280;7491;57.750;11.970;2024-01-07T08:02:39;80047.16;;;-142.11;100.00
14800;BME280;7491;57.750;11.970;2024-01-07T08:05:06;80036.97;;;-142.11;100.00
14800;BME280;7491;57.750;11.970;2024-01-07T08:07:32;80039.00;;;-142.11;100.00
14800;BME280;7491;57.750;11.970;2024-01-07T08:09:59;80057.38;;;-142.11;100.00
14800;BME280;7491;57.750;11.970;2024-01-07T08:12:27;80053.28;;;-142.11;100.00
14800;BME280;7491;57.750;11.970;2024-01-07T08:14:54;80073.69;;;-142.11;100.00
14800;BME280;7491;57.750;11.970;2024-01-07T08:17:21;80055.34;;;-142.11;100.00
14800;BME280;7491;57.750;11.970;2024-01-07T08:19:47;80049.22;;;-142.11;100.00
14800;BME280;7491;57.750;11.970;2024-01-07T08:22:14;80057.38;;;-142.11;100.00
14800;BME280;7491;57.750;11.970;2024-01-07T08:24:40;80051.25;;;-142.11;100.00
14800;BME280;7491;57.750;11.970;2024-01-07T08:27:08;80059.41;;;-142.11;100.00
14800;BME280;7491;57.750;11.970;2024-01-07T08:29:36;80055.34;;;-142.11;100.00
14800;BME280;7491;57.750;11.970;2024-01-07T08:32:02;80069.63;;;-142.11;100.00
14800;BME280;7491;57.750;11.970;2024-01-07T08:34:29;80055.34;;;-142.11;100.00
14800;BME280;7491;57.750;11.970;2024-01-07T08:36:56;80057.38;;;-142.11;100.00
14800;BME280;7491;57.750;11.970;2024-01-07T08:39:22;80067.56;;;-142.11;100.00
14800;BME280;7491;57.750;11.970;2024-01-07T08:41:51;80055.34;;;-142.11;100.00
14800;BME280;7491;57.750;11.970;2024-01-07T08:44:17;80079.81;;;-142.11;100.00
14800;BME280;7491;57.750;11.970;2024-01-07T08:46:45;80092.06;;;-142.11;100.00
14800;BME280;7491;57.750;11.970;2024-01-07T08:49:12;80071.66;;;-142.11;100.00
14800;BME280;7491;57.750;11.970;2024-01-07T08:51:39;80055.34;;;-142.11;100.00
14800;BME280;7491;57.750;11.970;2024-01-07T08:54:06;80088.00;;;-142.11;100.00
14800;BME280;7491;57.750;11.970;2024-01-07T08:56:32;80065.53;;;-142.11;100.00
14800;BME280;7491;57.750;11.970;2024-01-07T08:58:59;80098.19;;;-142.11;100.00
14800;BME280;7491;57.750;11.970;2024-01-07T09:01:26;80094.13;;;-142.11;100.00
14800;BME280;7491;57.750;11.970;2024-01-07T09:03:53;80085.94;;;-142.11;100.00
14800;BME280;7491;57.750;11.970;2024-01-07T09:06:19;80067.56;;;-142.11;100.00
14800;BME280;7491;57.750;11.970;2024-01-07T09:08:46;80067.56;;;-142.11;100.00
14800;BME280;7491;57.750;11.970;2024-01-07T09:11:12;80081.88;;;-142.11;100.00
14800;BME280;7491;57.750;11.970;2024-01-07T09:13:39;80071.66;;;-142.11;100.00
14800;BME280;7491;57.750;11.970;2024-01-07T09:16:07;80088.00;;;-142.11;100.00
14800;BME280;7491;57.750;11.970;2024-01-07T09:18:34;80104.31;;;-142.11;100.00
14800;BME280;7491;57.750;11.970;2024-01-07T09:21:03;80108.41;;;-142.11;100.00
14800;BME280;7491;57.750;11.970;2024-01-07T09:23:29;80096.16;;;-142.11;100.00
14800;BME280;7491;57.750;11.970;2024-01-07T09:25:56;80077.78;;;-142.11;100.00
14800;BME280;7491;57.750;11.970;2024-01-07T09:28:23;80090.03;;;-142.11;100.00
14800;BME280;7491;57.750;11.970;2024-01-07T09:30:50;80079.81;;;-142.11;100.00
14800;BME280;7491;57.750;11.970;2024-01-07T09:33:16;80090.03;;;-142.11;100.00
14800;BME280;7491;57.750;11.970;2024-01-07T09:35:43;80073.69;;;-142.11;100.00
14800;BME280;7491;57.750;11.970;2024-01-07T09:38:11;80065.53;;;-142.11;100.00
14800;BME280;7491;57.750;11.970;2024-01-07T09:40:38;80075.75;;;-142.11;100.00
14800;BME280;7491;57.750;11.970;2024-01-07T09:43:04;80061.47;;;-142.11;100.00
14800;BME280;7491;57.750;11.970;2024-01-07T09:45:31;80051.25;;;-142.11;100.00
14800;BME280;7491;57.750;11.970;2024-01-07T09:47:58;80069.63;;;-142.11;100.00
14800;BME280;7491;57.750;11.970;2024-01-07T09:50:25;80067.56;;;-142.11;100.00
14800;BME280;7491;57.750;11.970;2024-01-07T09:52:56;80057.38;;;-142.11;100.00
14800;BME280;7491;57.750;11.970;2024-01-07T09:55:31;80051.25;;;-142.11;100.00
14800;BME280;7491;57.750;11.970;2024-01-07T09:57:59;80049.22;;;-142.11;100.00
14800;BME280;7491;57.750;11.970;2024-01-07T10:00:27;80036.97;;;-142.11;100.00
14800;BME280;7491;57.750;11.970;2024-01-07T10:02:54;80028.81;;;-142.11;100.00
14800;BME280;7491;57.750;11.970;2024-01-07T10:05:20;80022.69;;;-142.11;100.00
14800;BME280;7491;57.750;11.970;2024-01-07T10:07:47;80045.13;;;-142.11;100.00
14800;BME280;7491;57.750;11.970;2024-01-07T10:10:14;80051.25;;;-142.11;100.00
14800;BME280;7491;57.750;11.970;2024-01-07T10:12:43;80055.34;;;-142.11;100.00
14800;BME280;7491;57.750;11.970;2024-01-07T10:15:10;80065.53;;;-142.11;100.00
14800;BME280;7491;57.750;11.970;2024-01-07T10:17:37;80059.41;;;-142.11;100.00
14800;BME280;7491;57.750;11.970;2024-01-07T10:20:06;80061.47;;;-142.11;100.00
14800;BME280;7491;57.750;11.970;2024-01-07T10:22:35;80045.13;;;-142.11;100.00
14800;BME280;7491;57.750;11.970;2024-01-07T10:25:03;80065.53;;;-142.11;100.00
14800;BME280;7491;57.750;11.970;2024-01-07T10:27:29;80059.41;;;-142.11;100.00
14800;BME280;7491;57.750;11.970;2024-01-07T10:29:59;80067.56;;;-142.11;100.00
14800;BME280;7491;57.750;11.970;2024-01-07T10:32:26;80051.25;;;-142.11;100.00
14800;BME280;7491;57.750;11.970;2024-01-07T10:34:57;80067.56;;;-142.11;100.00
14800;BME280;7491;57.750;11.970;2024-01-07T10:37:28;80051.25;;;-142.11;100.00
14800;BME280;7491;57.750;11.970;2024-01-07T10:39:55;80065.53;;;-142.11;100.00
14800;BME280;7491;57.750;11.970;2024-01-07T10:42:26;80096.16;;;-142.11;100.00
14800;BME280;7491;57.750;11.970;2024-01-07T10:44:53;80100.22;;;-142.11;100.00
14800;BME280;7491;57.750;11.970;2024-01-07T10:47:22;80088.00;;;-142.11;100.00
14800;BME280;7491;57.750;11.970;2024-01-07T10:49:50;80055.34;;;-142.11;100.00
14800;BME280;7491;57.750;11.970;2024-01-07T10:52:17;80057.38;;;-142.11;100.00
14800;BME280;7491;57.750;11.970;2024-01-07T10:54:47;80071.66;;;-142.11;100.00
14800;BME280;7491;57.750;11.970;2024-01-07T10:57:20;80090.03;;;-142.11;100.00
14800;BME280;7491;57.750;11.970;2024-01-07T10:59:50;80098.19;;;-142.11;100.00
14800;BME280;7491;57.750;11.970;2024-01-07T11:02:19;80088.00;;;-142.11;100.00
14800;BME280;7491;57.750;11.970;2024-01-07T11:04:51;80096.16;;;-142.11;100.00
14800;BME280;7491;57.750;11.970;2024-01-07T11:07:28;80065.53;;;-142.11;100.00
14800;BME280;7491;57.750;11.970;2024-01-07T11:10:07;80055.34;;;-142.11;100.00
14800;BME280;7491;57.750;11.970;2024-01-07T11:12:35;80069.63;;;-142.11;100.00
14800;BME280;7491;57.750;11.970;2024-01-07T11:15:03;80053.28;;;-142.11;100.00
14800;BME280;7491;57.750;11.970;2024-01-07T11:17:40;80045.13;;;-142.11;100.00
14800;BME280;7491;57.750;11.970;2024-01-07T11:20:18;80032.88;;;-142.11;100.00
14800;BME280;7491;57.750;11.970;2024-01-07T11:22:45;80061.47;;;-142.11;100.00
14800;BME280;7491;57.750;11.970;2024-01-07T11:25:28;80051.25;;;-142.11;100.00
14800;BME280;7491;57.750;11.970;2024-01-07T11:27:56;80057.38;;;-142.11;100.00
14800;BME280;7491;57.750;11.970;2024-01-07T11:30:23;80059.41;;;-142.11;100.00
14800;BME280;7491;57.750;11.970;2024-01-07T11:32:56;80057.38;;;-142.11;100.00
14800;BME280;7491;57.750;11.970;2024-01-07T11:35:53;80073.69;;;-142.11;100.00
14800;BME280;7491;57.750;11.970;2024-01-07T11:38:21;80073.69;;;-142.11;100.00
14800;BME280;7491;57.750;11.970;2024-01-07T11:40:49;80059.41;;;-142.11;100.00
14800;BME280;7491;57.750;11.970;2024-01-07T11:43:15;80063.50;;;-142.11;100.00
14800;BME280;7491;57.750;11.970;2024-01-07T11:45:42;80049.22;;;-142.11;100.00
14800;BME280;7491;57.750;11.970;2024-01-07T11:48:09;80043.09;;;-142.11;100.00
14800;BME280;7491;57.750;11.970;2024-01-07T11:50:37;80045.13;;;-142.11;100.00
14800;BME280;7491;57.750;11.970;2024-01-07T11:53:04;80065.53;;;-142.11;100.00
14800;BME280;7491;57.750;11.970;2024-01-07T11:55:32;80053.28;;;-142.11;100.00
14800;BME280;7491;57.750;11.970;2024-01-07T11:58:00;80041.03;;;-142.11;100.00
14800;BME280;7491;57.750;11.970;2024-01-07T12:00:27;80022.69;;;-142.11;100.00
14800;BME280;7491;57.750;11.970;2024-01-07T12:02:54;80039.00;;;-142.11;100.00
14800;BME280;7491;57.750;11.970;2024-01-07T12:05:20;80049.22;;;-142.11;100.00
14800;BME280;7491;57.750;11.970;2024-01-07T12:07:48;80036.97;;;-142.11;100.00
14800;BME280;7491;57.750;11.970;2024-01-07T12:10:15;80024.72;;;-142.11;100.00
14800;BME280;7491;57.750;11.970;2024-01-07T12:12:43;80039.00;;;-142.11;100.00
14800;BME280;7491;57.750;11.970;2024-01-07T12:15:10;80018.59;;;-142.11;100.00
14800;BME280;7491;57.750;11.970;2024-01-07T12:17:38;80016.56;;;-142.11;100.00
14800;BME280;7491;57.750;11.970;2024-01-07T12:20:05;80024.72;;;-142.11;100.00
14800;BME280;7491;57.750;11.970;2024-01-07T12:22:33;80020.63;;;-142.11;100.00
14800;BME280;7491;57.750;11.970;2024-01-07T12:25:01;79998.19;;;-142.11;100.00
14800;BME280;7491;57.750;11.970;2024-01-07T12:27:28;79994.09;;;-142.11;100.00
14800;BME280;7491;57.750;11.970;2024-01-07T12:29:55;80020.63;;;-142.11;100.00
14800;BME280;7491;57.750;11.970;2024-01-07T12:32:22;80018.59;;;-142.11;100.00
14800;BME280;7491;57.750;11.970;2024-01-07T12:34:49;80002.28;;;-142.11;100.00
14800;BME280;7491;57.750;11.970;2024-01-07T12:37:15;79988.00;;;-142.11;100.00
14800;BME280;7491;57.750;11.970;2024-01-07T12:39:42;79992.06;;;-142.11;100.00
14800;BME280;7491;57.750;11.970;2024-01-07T12:42:10;79998.19;;;-142.11;100.00
14800;BME280;7491;57.750;11.970;2024-01-07T12:44:38;79981.88;;;-142.11;100.00
14800;BME280;7491;57.750;11.970;2024-01-07T12:47:05;79959.41;;;-142.11;100.00
14800;BME280;7491;57.750;11.970;2024-01-07T12:49:32;79975.75;;;-142.11;100.00
14800;BME280;7491;57.750;11.970;2024-01-07T12:51:58;79963.50;;;-142.11;100.00
14800;BME280;7491;57.750;11.970;2024-01-07T12:54:25;79963.50;;;-142.11;100.00
14800;BME280;7491;57.750;11.970;2024-01-07T12:56:51;79963.50;;;-142.11;100.00
14800;BME280;7491;57.750;11.970;2024-01-07T12:59:20;79947.19;;;-142.11;100.00
14800;BME280;7491;57.750;11.970;2024-01-07T13:01:46;79961.47;;;-142.11;100.00
14800;BME280;7491;57.750;11.970;2024-01-07T13:04:13;79967.59;;;-142.11;100.00
14800;BME280;7491;57.750;11.970;2024-01-07T13:06:39;79983.91;;;-142.11;100.00
14800;BME280;7491;57.750;11.970;2024-01-07T13:09:06;79973.69;;;-142.11;100.00
14800;BME280;7491;57.750;11.970;2024-01-07T13:11:33;79953.28;;;-142.11;100.00
14800;BME280;7491;57.750;11.970;2024-01-07T13:14:00;79959.41;;;-142.11;100.00
14800;BME280;7491;57.750;11.970;2024-01-07T13:16:28;79971.66;;;-142.11;100.00
14800;BME280;7491;57.750;11.970;2024-01-07T13:18:55;79981.88;;;-142.11;100.00
14800;BME280;7491;57.750;11.970;2024-01-07T13:21:22;79975.75;;;-142.11;100.00
14800;BME280;7491;57.750;11.970;2024-01-07T13:23:49;79961.47;;;-142.11;100.00
14800;BME280;7491;57.750;11.970;2024-01-07T13:26:15;79963.50;;;-142.11;100.00
14800;BME280;7491;57.750;11.970;2024-01-07T13:28:42;79959.41;;;-142.11;100.00
14800;BME280;7491;57.750;11.970;2024-01-07T13:31:09;79992.06;;;-142.11;100.00
14800;BME280;7491;57.750;11.970;2024-01-07T13:33:38;79975.75;;;-142.11;100.00
14800;BME280;7491;57.750;11.970;2024-01-07T13:36:06;79961.47;;;-142.11;100.00
14800;BME280;7491;57.750;11.970;2024-01-07T13:38:34;79961.47;;;-142.11;100.00
14800;BME280;7491;57.750;11.970;2024-01-07T13:41:03;79971.66;;;-142.11;100.00
14800;BME280;7491;57.750;11.970;2024-01-07T13:43:30;79969.63;;;-142.11;100.00
14800;BME280;7491;57.750;11.970;2024-01-07T13:45:57;79977.78;;;-142.11;100.00
14800;BME280;7491;57.750;11.970;2024-01-07T13:48:23;79957.38;;;-142.11;100.00
14800;BME280;7491;57.750;11.970;2024-01-07T13:50:52;79961.47;;;-142.11;100.00
14800;BME280;7491;57.750;11.970;2024-01-07T13:53:19;79973.69;;;-142.11;100.00
14800;BME280;7491;57.750;11.970;2024-01-07T13:55:46;79977.78;;;-142.11;100.00
14800;BME280;7491;57.750;11.970;2024-01-07T13:58:12;79979.81;;;-142.11;100.00
14800;BME280;7491;57.750;11.970;2024-01-07T14:00:40;79985.94;;;-142.11;100.00
14800;BME280;7491;57.750;11.970;2024-01-07T14:03:07;79990.03;;;-142.11;100.00
14800;BME280;7491;57.750;11.970;2024-01-07T14:05:33;80004.31;;;-142.11;100.00
14800;BME280;7491;57.750;11.970;2024-01-07T14:08:02;80012.47;;;-142.11;100.00
14800;BME280;7491;57.750;11.970;2024-01-07T14:10:28;80004.31;;;-142.11;100.00
14800;BME280;7491;57.750;11.970;2024-01-07T14:12:55;80014.53;;;-142.11;100.00
14800;BME280;7491;57.750;11.970;2024-01-07T14:15:22;79996.16;;;-142.11;100.00
14800;BME280;7491;57.750;11.970;2024-01-07T14:17:48;80010.44;;;-142.11;100.00
14800;BME280;7491;57.750;11.970;2024-01-07T14:20:15;80018.59;;;-142.11;100.00
14800;BME280;7491;57.750;11.970;2024-01-07T14:22:41;80016.56;;;-142.11;100.00
14800;BME280;7491;57.750;11.970;2024-01-07T14:25:09;80016.56;;;-142.11;100.00
14800;BME280;7491;57.750;11.970;2024-01-07T14:27:36;80045.13;;;-142.11;100.00
14800;BME280;7491;57.750;11.970;2024-01-07T14:30:03;80028.81;;;-142.11;100.00
14800;BME280;7491;57.750;11.970;2024-01-07T14:32:30;80034.94;;;-142.11;100.00
14800;BME280;7491;57.750;11.970;2024-01-07T14:34:58;80055.34;;;-142.11;100.00
14800;BME280;7491;57.750;11.970;2024-01-07T14:37:26;80071.66;;;-142.11;100.00
14800;BME280;7491;57.750;11.970;2024-01-07T14:39:53;80055.34;;;-142.11;100.00
14800;BME280;7491;57.750;11.970;2024-01-07T14:42:21;80059.41;;;-142.11;100.00
14800;BME280;7491;57.750;11.970;2024-01-07T14:44:48;80096.16;;;-142.11;100.00
14800;BME280;7491;57.750;11.970;2024-01-07T14:47:15;80075.75;;;-142.11;100.00
14800;BME280;7491;57.750;11.970;2024-01-07T14:49:43;80063.50;;;-142.11;100.00
14800;BME280;7491;57.750;11.970;2024-01-07T14:52:09;80067.56;;;-142.11;100.00
14800;BME280;7491;57.750;11.970;2024-01-07T14:54:36;80114.53;;;-142.11;100.00
14800;BME280;7491;57.750;11.970;2024-01-07T14:57:03;80083.91;;;-142.11;100.00
14800;BME280;7491;57.750;11.970;2024-01-07T14:59:33;80112.47;;;-142.11;100.00
14800;BME280;7491;57.750;11.970;2024-01-07T15:02:04;80108.41;;;-142.11;100.00
14800;BME280;7491;57.750;11.970;2024-01-07T15:04:30;80132.88;;;-142.11;100.00
14800;BME280;7491;57.750;11.970;2024-01-07T15:06:57;80120.63;;;-142.11;100.00
14800;BME280;7491;57.750;11.970;2024-01-07T15:09:24;80132.88;;;-142.11;100.00
14800;BME280;7491;57.750;11.970;2024-01-07T15:11:50;80132.88;;;-142.11;100.00
14800;BME280;7491;57.750;11.970;2024-01-07T15:14:18;80153.28;;;-142.11;100.00
14800;BME280;7491;57.750;11.970;2024-01-07T15:16:46;80165.53;;;-142.11;100.00
14800;BME280;7491;57.750;11.970;2024-01-07T15:19:19;80196.16;;;-142.11;100.00
14800;BME280;7491;57.750;11.970;2024-01-07T15:21:45;80198.19;;;-142.11;100.00
14800;BME280;7491;57.750;11.970;2024-01-07T15:24:12;80210.44;;;-142.11;100.00
14800;BME280;7491;57.750;11.970;2024-01-07T15:26:40;80210.44;;;-142.11;100.00
14800;BME280;7491;57.750;11.970;2024-01-07T15:29:07;80208.41;;;-142.11;100.00
14800;BME280;7491;57.750;11.970;2024-01-07T15:31:33;80204.31;;;-142.11;100.00
14800;BME280;7491;57.750;11.970;2024-01-07T15:34:01;80206.34;;;-142.11;100.00
14800;BME280;7491;57.750;11.970;2024-01-07T15:36:28;80218.59;;;-142.11;100.00
14800;BME280;7491;57.750;11.970;2024-01-07T15:38:55;80204.31;;;-142.11;100.00
14800;BME280;7491;57.750;11.970;2024-01-07T15:41:21;80198.19;;;-142.11;100.00
14800;BME280;7491;57.750;11.970;2024-01-07T15:43:48;80202.28;;;-142.11;100.00
14800;BME280;7491;57.750;11.970;2024-01-07T15:46:14;80185.94;;;-142.11;100.00
14800;BME280;7491;57.750;11.970;2024-01-07T15:48:41;80188.00;;;-142.11;100.00
14800;BME280;7491;57.750;11.970;2024-01-07T15:51:09;80190.03;;;-142.11;100.00
14800;BME280;7491;57.750;11.970;2024-01-07T15:53:35;80202.28;;;-142.11;100.00
14800;BME280;7491;57.750;11.970;2024-01-07T15:56:03;80206.34;;;-142.11;100.00
14800;BME280;7491;57.750;11.970;2024-01-07T15:58:31;80202.28;;;-142.11;100.00
14800;BME280;7491;57.750;11.970;2024-01-07T16:01:00;80202.28;;;-142.11;100.00
14800;BME280;7491;57.750;11.970;2024-01-07T16:03:28;80212.47;;;-142.11;100.00
14800;BME280;7491;57.750;11.970;2024-01-07T16:05:55;80196.16;;;-142.11;100.00
14800;BME280;7491;57.750;11.970;2024-01-07T16:08:23;80218.59;;;-142.11;100.00
14800;BME280;7491;57.750;11.970;2024-01-07T16:10:51;80222.69;;;-142.11;100.00
14800;BME280;7491;57.750;11.970;2024-01-07T16:13:27;80230.84;;;-142.11;100.00
14800;BME280;7491;57.750;11.970;2024-01-07T16:15:54;80251.25;;;-142.11;100.00
14800;BME280;7491;57.750;11.970;2024-01-07T16:18:20;80230.84;;;-142.11;100.00
14800;BME280;7491;57.750;11.970;2024-01-07T16:20:47;80232.88;;;-142.11;100.00
14800;BME280;7491;57.750;11.970;2024-01-07T16:23:14;80236.97;;;-142.11;100.00
14800;BME280;7491;57.750;11.970;2024-01-07T16:25:42;80230.84;;;-142.11;100.00
14800;BME280;7491;57.750;11.970;2024-01-07T16:28:11;80257.38;;;-142.11;100.00
14800;BME280;7491;57.750;11.970;2024-01-07T16:30:42;80273.72;;;-142.11;100.00
14800;BME280;7491;57.750;11.970;2024-01-07T16:33:15;80259.41;;;-142.11;100.00
14800;BME280;7491;57.750;11.970;2024-01-07T16:35:42;80259.41;;;-142.11;100.00
14800;BME280;7491;57.750;11.970;2024-01-07T16:38:09;80281.88;;;-142.11;100.00
14800;BME280;7491;57.750;11.970;2024-01-07T16:40:46;80279.84;;;-142.11;100.00
14800;BME280;7491;57.750;11.970;2024-01-07T16:43:18;80316.56;;;-142.11;100.00
14800;BME280;7491;57.750;11.970;2024-01-07T16:45:46;80288.00;;;-142.11;100.00
14800;BME280;7491;57.750;11.970;2024-01-07T16:48:13;80265.53;;;-142.11;100.00
14800;BME280;7491;57.750;11.970;2024-01-07T16:50:39;80273.72;;;-142.11;100.00
14800;BME280;7491;57.750;11.970;2024-01-07T16:53:06;80281.88;;;-142.11;100.00
14800;BME280;7491;57.750;11.970;2024-01-07T16:55:32;80281.88;;;-142.11;100.00
14800;BME280;7491;57.750;11.970;2024-01-07T16:58:00;80302.28;;;-142.11;100.00
14800;BME280;7491;57.750;11.970;2024-01-07T17:00:27;80298.19;;;-142.11;100.00
14800;BME280;7491;57.750;11.970;2024-01-07T17:02:54;80279.84;;;-142.11;100.00
14800;BME280;7491;57.750;11.970;2024-01-07T17:05:20;80290.03;;;-142.11;100.00
14800;BME280;7491;57.750;11.970;2024-01-07T17:07:47;80283.91;;;-142.11;100.00
14800;BME280;7491;57.750;11.970;2024-01-07T17:10:14;80288.00;;;-142.11;100.00
14800;BME280;7491;57.750;11.970;2024-01-07T17:12:41;80298.19;;;-142.11;100.00
14800;BME280;7491;57.750;11.970;2024-01-07T17:15:10;80314.53;;;-142.11;100.00
14800;BME280;7491;57.750;11.970;2024-01-07T17:17:38;80326.78;;;-142.11;100.00
14800;BME280;7491;57.750;11.970;2024-01-07T17:20:06;80324.72;;;-142.11;100.00
14800;BME280;7491;57.750;11.970;2024-01-07T17:22:33;80318.59;;;-142.11;100.00
14800;BME280;7491;57.750;11.970;2024-01-07T17:25:00;80341.06;;;-142.11;100.00
14800;BME280;7491;57.750;11.970;2024-01-07T17:27:27;80353.31;;;-142.11;100.00
14800;BME280;7491;57.750;11.970;2024-01-07T17:29:53;80336.97;;;-142.11;100.00
14800;BME280;7491;57.750;11.970;2024-01-07T17:32:21;80345.16;;;-142.11;100.00
14800;BME280;7491;57.750;11.970;2024-01-07T17:34:50;80336.97;;;-142.11;100.00
14800;BME280;7491;57.750;11.970;2024-01-07T17:37:16;80355.34;;;-142.11;100.00
14800;BME280;7491;57.750;11.970;2024-01-07T17:39:43;80336.97;;;-142.11;100.00
14800;BME280;7491;57.750;11.970;2024-01-07T17:42:11;80336.97;;;-142.11;100.00
14800;BME280;7491;57.750;11.970;2024-01-07T17:44:37;80339.03;;;-142.11;100.00
14800;BME280;7491;57.750;11.970;2024-01-07T17:47:04;80351.25;;;-142.11;100.00
14800;BME280;7491;57.750;11.970;2024-01-07T17:49:32;80351.25;;;-142.11;100.00
14800;BME280;7491;57.750;11.970;2024-01-07T17:51:59;80353.31;;;-142.11;100.00
14800;BME280;7491;57.750;11.970;2024-01-07T17:54:27;80369.63;;;-142.11;100.00
14800;BME280;7491;57.750;11.970;2024-01-07T17:56:54;80343.09;;;-142.11;100.00
14800;BME280;7491;57.750;11.970;2024-01-07T17:59:20;80359.44;;;-142.11;100.00
14800;BME280;7491;57.750;11.970;2024-01-07T18:01:48;80392.09;;;-142.11;100.00
14800;BME280;7491;57.750;11.970;2024-01-07T18:04:16;80377.78;;;-142.11;100.00
14800;BME280;7491;57.750;11.970;2024-01-07T18:06:44;80351.25;;;-142.11;100.00
14800;BME280;7491;57.750;11.970;2024-01-07T18:09:10;80367.59;;;-142.11;100.00
14800;BME280;7491;57.750;11.970;2024-01-07T18:11:37;80361.47;;;-142.11;100.00
14800;BME280;7491;57.750;11.970;2024-01-07T18:14:04;80367.59;;;-142.11;100.00
14800;BME280;7491;57.750;11.970;2024-01-07T18:16:34;80365.56;;;-142.11;100.00
14800;BME280;7491;57.750;11.970;2024-01-07T18:19:00;80406.38;;;-142.11;100.00
14800;BME280;7491;57.750;11.970;2024-01-07T18:21:27;80402.28;;;-142.11;100.00
14800;BME280;7491;57.750;11.970;2024-01-07T18:23:58;80379.84;;;-142.11;100.00
14800;BME280;7491;57.750;11.970;2024-01-07T18:26:25;80377.78;;;-142.11;100.00
14800;BME280;7491;57.750;11.970;2024-01-07T18:28:52;80367.59;;;-142.11;100.00
14800;BME280;7491;57.750;11.970;2024-01-07T18:31:19;80379.84;;;-142.11;100.00
14800;BME280;7491;57.750;11.970;2024-01-07T18:33:46;80379.84;;;-142.11;100.00
14800;BME280;7491;57.750;11.970;2024-01-07T18:36:12;80392.09;;;-142.11;100.00
14800;BME280;7491;57.750;11.970;2024-01-07T18:38:40;80385.97;;;-142.11;100.00
14800;BME280;7491;57.750;11.970;2024-01-07T18:41:09;80373.72;;;-142.11;100.00
14800;BME280;7491;57.750;11.970;2024-01-07T18:43:35;80404.34;;;-142.11;100.00
14800;BME280;7491;57.750;11.970;2024-01-07T18:46:02;80394.13;;;-142.11;100.00
14800;BME280;7491;57.750;11.970;2024-01-07T18:48:29;80383.91;;;-142.11;100.00
14800;BME280;7491;57.750;11.970;2024-01-07T18:50:55;80422.69;;;-142.11;100.00
14800;BME280;7491;57.750;11.970;2024-01-07T18:53:22;80434.94;;;-142.11;100.00
14800;BME280;7491;57.750;11.970;2024-01-07T18:55:48;80422.69;;;-142.11;100.00
14800;BME280;7491;57.750;11.970;2024-01-07T18:58:16;80420.66;;;-142.11;100.00
14800;BME280;7491;57.750;11.970;2024-01-07T19:00:43;80410.44;;;-142.11;100.00
14800;BME280;7491;57.750;11.970;2024-01-07T19:03:11;80430.88;;;-142.11;100.00
14800;BME280;7491;57.750;11.970;2024-01-07T19:05:40;80418.63;;;-142.11;100.00
14800;BME280;7491;57.750;11.970;2024-01-07T19:08:09;80439.03;;;-142.11;100.00
14800;BME280;7491;57.750;11.970;2024-01-07T19:10:35;80439.03;;;-142.11;100.00
14800;BME280;7491;57.750;11.970;2024-01-07T19:13:02;80437.00;;;-142.11;100.00
14800;BME280;7491;57.750;11.970;2024-01-07T19:15:31;80430.88;;;-142.11;100.00
14800;BME280;7491;57.750;11.970;2024-01-07T19:17:58;80428.81;;;-142.11;100.00
14800;BME280;7491;57.750;11.970;2024-01-07T19:20:24;80426.78;;;-142.11;100.00
14800;BME280;7491;57.750;11.970;2024-01-07T19:22:55;80467.59;;;-142.11;100.00
14800;BME280;7491;57.750;11.970;2024-01-07T19:25:22;80426.78;;;-142.11;100.00
14800;BME280;7491;57.750;11.970;2024-01-07T19:27:49;80422.69;;;-142.11;100.00
14800;BME280;7491;57.750;11.970;2024-01-07T19:30:16;80428.81;;;-142.11;100.00
14800;BME280;7491;57.750;11.970;2024-01-07T19:32:43;80449.22;;;-142.11;100.00